Phh Corp (PHH) Latest Bloomsberg Price


Mffais Ranking #2023 Overall / #35 Industry
Industry: Mortgage Finance

Number of Companies: 97 (Ranking #1680 Overall/#20 Industry)
Inflow: $ 48,958 (K) (Ranking #1325 Overall/#10 Industry)
Outflow: $ -66,994 (K)
Mffais Flow: $ -18,035 (K) (Ranking #2023 Overall/#35 Industry)


Receive a FREE weekly executive review of stocks moving into the top 10, taking the top industy spot or moving up within their industry. Sent directly to your Inbox every Saturday. Sign up today and get last week's review immediately sent to you.

We value and respect your privacy. Please read our Terms and Conditions which states our firm commitment to your privacy. Your email address will not be shared with a third party, nor will it be sold or used for purposes other than subscription for the weekly review.

Owner CPOR Shares Action Qty Chg Invested (K) Total Current Value (K)
Carlson Capital L P 2016-09-30 1,344,899 New Holding 1,344,899 $ 19,743 $ 19,743
Bronson Point Management Llc 2016-09-30 477,862 New Holding 477,862 $ 7,015 $ 7,015
Everpoint Asset Management Llc 2016-09-30 750,000 Added More 410,000 $ 6,018 $ 11,010
Silver Point Capital L P 2016-09-30 4,407,500 Added More 407,500 $ 5,982 $ 64,702
Great Lakes Advisors Llc 2016-09-30 97,126 New Holding 97,126 $ 1,425 $ 1,425
Convergence Investment Partners Llc 2016-09-30 77,175 New Holding 77,175 $ 1,132 $ 1,132
Schonfeld Strategic Advisors Llc 2016-09-30 61,165 New Holding 61,165 $ 897 $ 897
Parametric Portfolio Associates Llc 2016-09-30 223,146 Added More 50,342 $ 739 $ 3,275
Sterling Capital Management Llc 2016-09-30 50,193 New Holding 50,193 $ 736 $ 736
Brandywine Global Investment Management Llc 2016-09-30 44,490 New Holding 44,490 $ 653 $ 653
Ahl Partners Llp 2016-09-30 40,944 New Holding 40,944 $ 601 $ 601
Legal General Group Plc 2016-09-30 175,897 Added More 40,813 $ 599 $ 2,582
Shell Asset Management Co 2016-09-30 38,304 New Holding 38,304 $ 562 $ 562
Trexquant Investment Lp 2016-09-30 21,831 New Holding 21,831 $ 320 $ 320
Stevens Capital Management Lp 2016-09-30 21,678 New Holding 21,678 $ 318 $ 318
Northern Trust Corp 2016-09-30 691,167 Added More 18,450 $ 270 $ 10,146
Princeton Alpha Management Lp 2016-09-30 15,544 New Holding 15,544 $ 228 $ 228
Pdt Partners Llc 2016-09-30 76,000 Added More 14,400 $ 211 $ 1,115
Bayesian Capital Management Lp 2016-09-30 12,795 New Holding 12,795 $ 187 $ 187
Dynamic Technology Lab Private Ltd 2016-09-30 12,047 New Holding 12,047 $ 176 $ 176
Fox Run Management L L C 2016-09-30 11,300 New Holding 11,300 $ 165 $ 165
Her Majesty The Queen In Right Of The Province Of Alberta As 2016-09-30 10,500 New Holding 10,500 $ 154 $ 154
Sei Investments Co 2016-09-30 9,411 Added More 9,353 $ 137 $ 138
Rational Advisors Llc 2016-09-30 9,000 New Holding 9,000 $ 132 $ 132
Quantbot Technologies Lp 2016-09-30 13,747 Added More 8,595 $ 126 $ 201
Sg Americas Securities Llc 2016-09-30 7,641 New Holding 7,641 $ 112 $ 112
Acrospire Investment Management Llc 2016-09-30 6,600 New Holding 6,600 $ 96 $ 96
Pacific Alternative Asset Management Company Llc 2016-09-30 80,465 Added More 5,000 $ 73 $ 1,181
Cubist Systematic Strategies Llc 2016-09-30 4,748 Added More 2,743 $ 40 $ 69
Blackrock Investment Management Llc 2016-09-30 218,513 Added More 1,801 $ 26 $ 3,207
Qs Investors Llc 2016-09-30 1,262 Added More 1,215 $ 17 $ 18
California State Teachers Retirement System 2016-09-30 112,205 Added More 1,100 $ 16 $ 1,647
Rhumbline Advisers 2016-09-30 69,297 Added More 1,020 $ 14 $ 1,017
Zurcher Kantonalbank Zurich Cantonalbank 2016-09-30 1,586 Added More 398 $ 5 $ 23
Ladenburg Thalmann Financial Services Inc 2016-09-30 434 Added More 300 $ 4 $ 6
Paradigm Capital Management Inc Ny 2016-09-30 25,925 Added More 250 $ 3 $ 380
Walleye Trading Llc 2016-09-30 400 Added More 200 $ 2 $ 5
Citizens Financial Group Inc Ri 2016-09-30 187 New Holding 187 $ 2 $ 2
Teachers Advisors Inc 2016-09-30 93,381 Added More 139 $ 2 $ 1,370
Blackrock Inc 2016-09-30 18,004 Added More 94 $ 1 $ 264
American International Group Inc 2016-09-30 30,548 Added More 46 $ 0 $ 448
Cable Hill Partners Llc 2016-09-30 31 New Holding 31 $ 0 $ 0
Old Mutual Global Investors Uk Ltd 2016-09-30 117 No Change 0 $ 0 $ 1
Thompson Davis Co Inc 2016-09-30 5 No Change 0 $ 0 $ 0
Pomelo Capital Llc 2016-09-30 177,400 No Change 0 $ 0 $ 2,604
Nisa Investment Advisors Llc 2016-09-30 24,000 No Change 0 $ 0 $ 352
Schwerin Boyle Capital Management Inc 2016-09-30 45,665 No Change 0 $ 0 $ 670
Loring Wolcott Coolidge Fiduciary Advisors Llp Ma 2016-09-30 325 No Change 0 $ 0 $ 4
Mackenzie Financial Corp 2016-09-30 20,843 No Change 0 $ 0 $ 305
Compagnie Lombard Odier Scma 2016-09-30 100 No Change 0 $ 0 $ 1
Next Financial Group Inc 2016-09-30 6 No Change 0 $ 0 $ 0
Ifp Advisors Inc 2016-09-30 110 No Change 0 $ 0 $ 1
Panagora Asset Management Inc 2016-09-30 120 No Change 0 $ 0 $ 1
Us Bancorp De 2016-09-30 1,000 No Change 0 $ 0 $ 14
Vnbtrust National Association 2016-09-30 15,000 No Change 0 $ 0 $ 220
Bridgeway Capital Management Inc 2016-09-30 53,350 No Change 0 $ 0 $ 783
Msi Financial Services Inc 2016-09-30 129 No Change 0 $ 0 $ 1
Meridian Investment Counsel Inc 2016-09-30 11,880 No Change 0 $ 0 $ 174
Old Mutual Customised Solutions Proprietary Ltd 2016-09-30 5,800 No Change 0 $ 0 $ 85
Johnson Financial Group Inc 2016-09-30 235 No Change 0 $ 0 $ 3
Nationwide Fund Advisors 2016-09-30 45,972 No Change 0 $ 0 $ 674
Hsbc Holdings Plc 2016-09-30 12,017 No Change 0 $ 0 $ 176
New York State Common Retirement Fund 2016-09-30 56,500 No Change 0 $ 0 $ 829
Valley National Advisers Inc 2016-09-30 7 No Change 0 $ 0 $ 0
Meyer Handelman Co 2016-09-30 70,000 No Change 0 $ 0 $ 1,027
Jacobi Capital Management Llc 2016-09-30 225 No Change 0 $ 0 $ 3
Advisor Group Inc 2016-09-30 28 Sold Some -2 $ -0 $ 0
Meeder Asset Management Inc 2016-09-30 0 Sold All -31 $ -0 $ 0
Creative Planning 2016-09-30 124 Sold Some -37 $ -0 $ 1
Westport Resources Management Inc 2016-09-30 0 Sold All -60 $ -0 $ 0
Pnc Financial Services Group Inc 2016-09-30 0 Sold All -268 $ -3 $ 0
Simplex Trading Llc 2016-09-30 0 Sold All -1,271 $ -18 $ 0
Cutler Group Lp 2016-09-30 6,800 Sold Some -1,761 $ -25 $ 99
Swiss National Bank 2016-09-30 86,700 Sold Some -3,200 $ -46 $ 1,272
Group One Trading L P 2016-09-30 0 Sold All -6,078 $ -89 $ 0
Nomura Asset Management Co Ltd 2016-09-30 0 Sold All -6,400 $ -93 $ 0
Pacad Investment Ltd 2016-09-30 10,500 Sold Some -6,600 $ -96 $ 154
Tudor Investment Corp Et Al 2016-09-30 20,318 Sold Some -7,361 $ -108 $ 298
Teacher Retirement System Of Texas 2016-09-30 0 Sold All -7,514 $ -110 $ 0
Tower Research Capital Llc Trc 2016-09-30 488 Sold Some -8,524 $ -125 $ 7
Emerald Acquisition Ltd 2016-09-30 26,524 Sold Some -10,912 $ -160 $ 389
Rbf Capital Llc 2016-09-30 60,000 Sold Some -13,508 $ -198 $ 880
Clinton Group Inc 2016-09-30 64,153 Sold Some -14,954 $ -219 $ 941
Hightower Advisors Llc 2016-09-30 0 Sold All -17,308 $ -254 $ 0
A R T Advisors Llc 2016-09-30 0 Sold All -19,937 $ -292 $ 0
Cumberland Partners Ltd 2016-09-30 0 Sold All -20,000 $ -293 $ 0
Oregon Public Employees Retirement Fund 2016-09-30 0 Sold All -26,845 $ -394 $ 0
Engineers Gate Manager Lp 2016-09-30 37,523 Sold Some -31,664 $ -464 $ 550
Dimensional Fund Advisors Lp 2016-09-30 3,156,095 Sold Some -47,346 $ -695 $ 46,331
Antipodean Advisors Llc 2016-09-30 0 Sold All -60,800 $ -892 $ 0
Rs Investment Management Co Llc 2016-06-30 0 Sold All -76,159 $ -1,014 $ 0
Jacobs Levy Equity Management Inc 2016-09-30 120,594 Sold Some -107,310 $ -1,575 $ 1,770
Three Corner Global Investors Lp 2016-09-30 1,330,700 Sold Some -217,700 $ -3,195 $ 19,534
Hotchkis Wiley Capital Management Llc 2016-09-30 5,005,180 Sold Some -449,800 $ -6,603 $ 73,476
Ejf Capital Llc 2016-09-30 500,000 Sold Some -847,607 $ -12,442 $ 7,340
Seawolf Capital Llc 2016-09-30 440,510 Sold Some -1,125,529 $ -16,522 $ 6,466
Samlyn Capital Llc 2016-09-30 1,174,908 Sold Some -1,434,248 $ -21,054 $ 17,247